sensor_id;sensor_type;location;lat;lon;timestamp;P1;durP1;ratioP1;P2;durP2;ratioP2
20880;SDS011;10600;53.096;8.802;2024-02-21T00:00:31;37.90;;;17.83;;
20880;SDS011;10600;53.096;8.802;2024-02-21T00:01:32;45.55;;;20.77;;
20880;SDS011;10600;53.096;8.802;2024-02-21T00:02:32;42.70;;;20.48;;
20880;SDS011;10600;53.096;8.802;2024-02-21T00:03:33;38.42;;;20.88;;
20880;SDS011;10600;53.096;8.802;2024-02-21T00:04:33;44.90;;;19.85;;
20880;SDS011;10600;53.096;8.802;2024-02-21T00:05:35;47.08;;;20.70;;
20880;SDS011;10600;53.096;8.802;2024-02-21T00:06:35;45.22;;;21.02;;
20880;SDS011;10600;53.096;8.802;2024-02-21T00:07:36;49.80;;;21.65;;
20880;SDS011;10600;53.096;8.802;2024-02-21T00:08:36;49.63;;;21.33;;
20880;SDS011;10600;53.096;8.802;2024-02-21T00:09:37;43.03;;;20.75;;
20880;SDS011;10600;53.096;8.802;2024-02-21T00:10:37;43.95;;;20.83;;
20880;SDS011;10600;53.096;8.802;2024-02-21T00:11:38;44.53;;;20.23;;
20880;SDS011;10600;53.096;8.802;2024-02-21T00:12:38;45.75;;;21.35;;
20880;SDS011;10600;53.096;8.802;2024-02-21T00:13:39;50.22;;;21.27;;
20880;SDS011;10600;53.096;8.802;2024-02-21T00:14:39;35.63;;;17.15;;
20880;SDS011;10600;53.096;8.802;2024-02-21T00:15:40;53.45;;;21.80;;
20880;SDS011;10600;53.096;8.802;2024-02-21T00:16:41;44.40;;;21.15;;
20880;SDS011;10600;53.096;8.802;2024-02-21T00:17:42;46.15;;;21.67;;
20880;SDS011;10600;53.096;8.802;2024-02-21T00:18:46;42.55;;;19.73;;
20880;SDS011;10600;53.096;8.802;2024-02-21T00:19:46;53.20;;;23.83;;
20880;SDS011;10600;53.096;8.802;2024-02-21T00:20:47;46.60;;;21.35;;
20880;SDS011;10600;53.096;8.802;2024-02-21T00:21:47;44.40;;;19.30;;
20880;SDS011;10600;53.096;8.802;2024-02-21T00:22:48;42.00;;;21.60;;
20880;SDS011;10600;53.096;8.802;2024-02-21T00:23:49;52.90;;;23.30;;
20880;SDS011;10600;53.096;8.802;2024-02-21T00:24:50;51.13;;;23.48;;
20880;SDS011;10600;53.096;8.802;2024-02-21T00:25:51;53.28;;;22.27;;
20880;SDS011;10600;53.096;8.802;2024-02-21T00:26:51;49.47;;;22.38;;
20880;SDS011;10600;53.096;8.802;2024-02-21T00:27:53;46.17;;;22.85;;
20880;SDS011;10600;53.096;8.802;2024-02-21T00:28:53;49.72;;;23.20;;
20880;SDS011;10600;53.096;8.802;2024-02-21T00:29:54;53.28;;;24.35;;
20880;SDS011;10600;53.096;8.802;2024-02-21T00:30:55;53.75;;;25.40;;
20880;SDS011;10600;53.096;8.802;2024-02-21T00:31:55;49.55;;;23.88;;
20880;SDS011;10600;53.096;8.802;2024-02-21T00:32:56;50.17;;;25.27;;
20880;SDS011;10600;53.096;8.802;2024-02-21T00:33:56;59.75;;;29.70;;
20880;SDS011;10600;53.096;8.802;2024-02-21T00:34:58;62.80;;;31.40;;
20880;SDS011;10600;53.096;8.802;2024-02-21T00:35:58;52.00;;;25.13;;
20880;SDS011;10600;53.096;8.802;2024-02-21T00:36:59;57.35;;;28.45;;
20880;SDS011;10600;53.096;8.802;2024-02-21T00:37:59;60.28;;;26.35;;
20880;SDS011;10600;53.096;8.802;2024-02-21T00:39:00;49.42;;;25.02;;
20880;SDS011;10600;53.096;8.802;2024-02-21T00:40:00;48.85;;;21.42;;
20880;SDS011;10600;53.096;8.802;2024-02-21T00:41:01;51.35;;;24.80;;
20880;SDS011;10600;53.096;8.802;2024-02-21T00:42:01;57.17;;;27.35;;
20880;SDS011;10600;53.096;8.802;2024-02-21T00:43:02;58.22;;;25.63;;
20880;SDS011;10600;53.096;8.802;2024-02-21T00:44:03;44.28;;;23.25;;
20880;SDS011;10600;53.096;8.802;2024-02-21T00:45:05;62.33;;;28.42;;
20880;SDS011;10600;53.096;8.802;2024-02-21T00:46:06;59.88;;;28.45;;
20880;SDS011;10600;53.096;8.802;2024-02-21T00:47:07;49.97;;;24.23;;
20880;SDS011;10600;53.096;8.802;2024-02-21T00:48:08;57.58;;;27.80;;
20880;SDS011;10600;53.096;8.802;2024-02-21T00:49:08;63.13;;;29.17;;
20880;SDS011;10600;53.096;8.802;2024-02-21T00:50:09;56.33;;;27.92;;
20880;SDS011;10600;53.096;8.802;2024-02-21T00:51:09;64.82;;;28.75;;
20880;SDS011;10600;53.096;8.802;2024-02-21T00:52:10;57.60;;;26.67;;
20880;SDS011;10600;53.096;8.802;2024-02-21T00:53:10;60.50;;;29.70;;
20880;SDS011;10600;53.096;8.802;2024-02-21T00:54:11;58.55;;;26.80;;
20880;SDS011;10600;53.096;8.802;2024-02-21T00:55:11;59.10;;;27.92;;
20880;SDS011;10600;53.096;8.802;2024-02-21T00:56:12;58.65;;;28.38;;
20880;SDS011;10600;53.096;8.802;2024-02-21T00:57:12;59.58;;;27.77;;
20880;SDS011;10600;53.096;8.802;2024-02-21T00:58:13;52.15;;;25.83;;
20880;SDS011;10600;53.096;8.802;2024-02-21T00:59:13;61.72;;;28.98;;
20880;SDS011;10600;53.096;8.802;2024-02-21T01:00:14;55.65;;;28.30;;
20880;SDS011;10600;53.096;8.802;2024-02-21T01:01:20;63.03;;;27.00;;
20880;SDS011;10600;53.096;8.802;2024-02-21T01:02:25;51.65;;;27.05;;
20880;SDS011;10600;53.096;8.802;2024-02-21T01:03:26;57.20;;;27.83;;
20880;SDS011;10600;53.096;8.802;2024-02-21T01:04:27;59.13;;;27.40;;
20880;SDS011;10600;53.096;8.802;2024-02-21T01:05:27;63.45;;;27.10;;
20880;SDS011;10600;53.096;8.802;2024-02-21T01:06:29;58.80;;;26.50;;
20880;SDS011;10600;53.096;8.802;2024-02-21T01:07:29;61.92;;;27.17;;
20880;SDS011;10600;53.096;8.802;2024-02-21T01:08:30;60.28;;;26.80;;
20880;SDS011;10600;53.096;8.802;2024-02-21T01:09:30;52.65;;;25.65;;
20880;SDS011;10600;53.096;8.802;2024-02-21T01:10:31;56.08;;;23.83;;
20880;SDS011;10600;53.096;8.802;2024-02-21T01:11:32;51.63;;;26.02;;
20880;SDS011;10600;53.096;8.802;2024-02-21T01:12:32;58.22;;;26.42;;
20880;SDS011;10600;53.096;8.802;2024-02-21T01:13:33;44.58;;;23.23;;
20880;SDS011;10600;53.096;8.802;2024-02-21T01:14:33;53.08;;;26.30;;
20880;SDS011;10600;53.096;8.802;2024-02-21T01:15:34;48.53;;;24.88;;
20880;SDS011;10600;53.096;8.802;2024-02-21T01:16:35;53.88;;;26.52;;
20880;SDS011;10600;53.096;8.802;2024-02-21T01:17:35;53.53;;;26.80;;
20880;SDS011;10600;53.096;8.802;2024-02-21T01:18:39;47.50;;;23.98;;
20880;SDS011;10600;53.096;8.802;2024-02-21T01:19:39;52.95;;;24.05;;
20880;SDS011;10600;53.096;8.802;2024-02-21T01:20:40;55.08;;;27.13;;
20880;SDS011;10600;53.096;8.802;2024-02-21T01:21:40;61.50;;;25.45;;
20880;SDS011;10600;53.096;8.802;2024-02-21T01:22:41;51.72;;;23.02;;
20880;SDS011;10600;53.096;8.802;2024-02-21T01:23:42;51.00;;;24.55;;
20880;SDS011;10600;53.096;8.802;2024-02-21T01:24:42;50.53;;;26.30;;
20880;SDS011;10600;53.096;8.802;2024-02-21T01:25:43;52.95;;;25.48;;
20880;SDS011;10600;53.096;8.802;2024-02-21T01:26:44;66.63;;;28.70;;
20880;SDS011;10600;53.096;8.802;2024-02-21T01:27:44;53.53;;;25.40;;
20880;SDS011;10600;53.096;8.802;2024-02-21T01:28:45;54.88;;;25.90;;
20880;SDS011;10600;53.096;8.802;2024-02-21T01:29:45;57.70;;;25.42;;
20880;SDS011;10600;53.096;8.802;2024-02-21T01:30:47;50.92;;;25.45;;
20880;SDS011;10600;53.096;8.802;2024-02-21T01:31:48;48.83;;;26.10;;
20880;SDS011;10600;53.096;8.802;2024-02-21T01:32:48;55.22;;;26.30;;
20880;SDS011;10600;53.096;8.802;2024-02-21T01:33:49;54.20;;;26.70;;
20880;SDS011;10600;53.096;8.802;2024-02-21T01:34:50;52.67;;;25.40;;
20880;SDS011;10600;53.096;8.802;2024-02-21T01:35:51;55.58;;;24.38;;
20880;SDS011;10600;53.096;8.802;2024-02-21T01:36:52;55.53;;;26.30;;
20880;SDS011;10600;53.096;8.802;2024-02-21T01:37:53;53.97;;;25.75;;
20880;SDS011;10600;53.096;8.802;2024-02-21T01:38:53;58.95;;;27.40;;
20880;SDS011;10600;53.096;8.802;2024-02-21T01:39:54;56.58;;;26.75;;
20880;SDS011;10600;53.096;8.802;2024-02-21T01:40:55;55.67;;;25.58;;
20880;SDS011;10600;53.096;8.802;2024-02-21T01:41:56;55.67;;;25.52;;
20880;SDS011;10600;53.096;8.802;2024-02-21T01:42:57;50.05;;;23.80;;
20880;SDS011;10600;53.096;8.802;2024-02-21T01:43:57;55.58;;;26.55;;
20880;SDS011;10600;53.096;8.802;2024-02-21T01:44:58;52.58;;;25.55;;
20880;SDS011;10600;53.096;8.802;2024-02-21T01:45:59;57.53;;;24.58;;
20880;SDS011;10600;53.096;8.802;2024-02-21T01:46:59;54.47;;;26.52;;
20880;SDS011;10600;53.096;8.802;2024-02-21T01:48:00;54.85;;;25.92;;
20880;SDS011;10600;53.096;8.802;2024-02-21T01:49:01;53.17;;;25.40;;
20880;SDS011;10600;53.096;8.802;2024-02-21T01:50:02;45.08;;;22.60;;
20880;SDS011;10600;53.096;8.802;2024-02-21T01:51:03;50.70;;;25.55;;
20880;SDS011;10600;53.096;8.802;2024-02-21T01:52:05;48.13;;;23.10;;
20880;SDS011;10600;53.096;8.802;2024-02-21T01:53:05;59.42;;;27.35;;
20880;SDS011;10600;53.096;8.802;2024-02-21T01:54:07;62.53;;;27.48;;
20880;SDS011;10600;53.096;8.802;2024-02-21T01:55:08;52.03;;;24.52;;
20880;SDS011;10600;53.096;8.802;2024-02-21T01:56:10;52.97;;;24.02;;
20880;SDS011;10600;53.096;8.802;2024-02-21T01:57:13;55.05;;;24.52;;
20880;SDS011;10600;53.096;8.802;2024-02-21T01:58:15;51.35;;;24.13;;
20880;SDS011;10600;53.096;8.802;2024-02-21T01:59:16;50.95;;;24.77;;
20880;SDS011;10600;53.096;8.802;2024-02-21T02:00:18;54.65;;;25.20;;
20880;SDS011;10600;53.096;8.802;2024-02-21T02:01:19;44.92;;;23.50;;
20880;SDS011;10600;53.096;8.802;2024-02-21T02:02:20;52.10;;;26.30;;
20880;SDS011;10600;53.096;8.802;2024-02-21T02:03:21;49.97;;;24.85;;
20880;SDS011;10600;53.096;8.802;2024-02-21T02:04:22;52.75;;;24.88;;
20880;SDS011;10600;53.096;8.802;2024-02-21T02:05:23;52.78;;;25.08;;
20880;SDS011;10600;53.096;8.802;2024-02-21T02:06:24;55.13;;;25.45;;
20880;SDS011;10600;53.096;8.802;2024-02-21T02:07:24;44.83;;;25.45;;
20880;SDS011;10600;53.096;8.802;2024-02-21T02:08:25;50.60;;;23.88;;
20880;SDS011;10600;53.096;8.802;2024-02-21T02:09:26;49.30;;;24.40;;
20880;SDS011;10600;53.096;8.802;2024-02-21T02:10:27;51.00;;;25.13;;
20880;SDS011;10600;53.096;8.802;2024-02-21T02:11:27;50.83;;;24.25;;
20880;SDS011;10600;53.096;8.802;2024-02-21T02:12:28;52.63;;;23.50;;
20880;SDS011;10600;53.096;8.802;2024-02-21T02:13:29;51.42;;;25.00;;
20880;SDS011;10600;53.096;8.802;2024-02-21T02:14:29;56.33;;;24.65;;
20880;SDS011;10600;53.096;8.802;2024-02-21T02:15:46;54.58;;;26.40;;
20880;SDS011;10600;53.096;8.802;2024-02-21T02:16:48;47.33;;;24.70;;
20880;SDS011;10600;53.096;8.802;2024-02-21T02:17:49;53.05;;;22.85;;
20880;SDS011;10600;53.096;8.802;2024-02-21T02:18:49;48.30;;;23.33;;
20880;SDS011;10600;53.096;8.802;2024-02-21T02:19:50;54.22;;;25.35;;
20880;SDS011;10600;53.096;8.802;2024-02-21T02:20:50;54.17;;;25.35;;
20880;SDS011;10600;53.096;8.802;2024-02-21T02:21:54;55.10;;;23.98;;
20880;SDS011;10600;53.096;8.802;2024-02-21T02:22:59;51.83;;;20.42;;
20880;SDS011;10600;53.096;8.802;2024-02-21T02:24:22;53.25;;;24.63;;
20880;SDS011;10600;53.096;8.802;2024-02-21T02:25:26;48.17;;;23.88;;
20880;SDS011;10600;53.096;8.802;2024-02-21T02:26:26;53.22;;;24.75;;
20880;SDS011;10600;53.096;8.802;2024-02-21T02:27:27;56.08;;;24.42;;
20880;SDS011;10600;53.096;8.802;2024-02-21T02:28:27;57.08;;;24.42;;
20880;SDS011;10600;53.096;8.802;2024-02-21T02:29:28;50.05;;;23.90;;
20880;SDS011;10600;53.096;8.802;2024-02-21T02:30:32;63.05;;;25.40;;
20880;SDS011;10600;53.096;8.802;2024-02-21T02:31:37;53.47;;;24.88;;
20880;SDS011;10600;53.096;8.802;2024-02-21T02:32:38;53.15;;;23.75;;
20880;SDS011;10600;53.096;8.802;2024-02-21T02:33:39;48.65;;;23.85;;
20880;SDS011;10600;53.096;8.802;2024-02-21T02:34:39;52.30;;;23.15;;
20880;SDS011;10600;53.096;8.802;2024-02-21T02:35:40;56.00;;;24.40;;
20880;SDS011;10600;53.096;8.802;2024-02-21T02:36:40;46.92;;;23.05;;
20880;SDS011;10600;53.096;8.802;2024-02-21T02:37:47;50.13;;;22.50;;
20880;SDS011;10600;53.096;8.802;2024-02-21T02:38:49;52.45;;;24.02;;
20880;SDS011;10600;53.096;8.802;2024-02-21T02:39:49;49.08;;;23.65;;
20880;SDS011;10600;53.096;8.802;2024-02-21T02:40:50;53.38;;;24.52;;
20880;SDS011;10600;53.096;8.802;2024-02-21T02:41:50;46.90;;;22.08;;
20880;SDS011;10600;53.096;8.802;2024-02-21T02:42:51;48.75;;;23.48;;
20880;SDS011;10600;53.096;8.802;2024-02-21T02:43:54;55.05;;;23.92;;
20880;SDS011;10600;53.096;8.802;2024-02-21T02:44:55;58.28;;;23.42;;
20880;SDS011;10600;53.096;8.802;2024-02-21T02:45:57;52.83;;;22.55;;
20880;SDS011;10600;53.096;8.802;2024-02-21T02:46:57;53.45;;;23.05;;
20880;SDS011;10600;53.096;8.802;2024-02-21T02:47:58;53.13;;;24.05;;
20880;SDS011;10600;53.096;8.802;2024-02-21T02:48:59;47.80;;;24.30;;
20880;SDS011;10600;53.096;8.802;2024-02-21T02:50:00;53.22;;;22.05;;
20880;SDS011;10600;53.096;8.802;2024-02-21T02:51:01;54.58;;;25.00;;
20880;SDS011;10600;53.096;8.802;2024-02-21T02:52:02;53.65;;;22.90;;
20880;SDS011;10600;53.096;8.802;2024-02-21T02:53:03;52.05;;;23.67;;
20880;SDS011;10600;53.096;8.802;2024-02-21T02:54:03;54.22;;;25.80;;
20880;SDS011;10600;53.096;8.802;2024-02-21T02:55:04;48.78;;;22.73;;
20880;SDS011;10600;53.096;8.802;2024-02-21T02:56:05;48.95;;;24.42;;
20880;SDS011;10600;53.096;8.802;2024-02-21T02:57:07;47.58;;;24.65;;
20880;SDS011;10600;53.096;8.802;2024-02-21T02:58:07;55.85;;;24.48;;
20880;SDS011;10600;53.096;8.802;2024-02-21T02:59:08;44.38;;;22.13;;
20880;SDS011;10600;53.096;8.802;2024-02-21T03:00:12;53.58;;;23.38;;
20880;SDS011;10600;53.096;8.802;2024-02-21T03:01:16;48.25;;;21.45;;
20880;SDS011;10600;53.096;8.802;2024-02-21T03:02:17;41.22;;;22.55;;
20880;SDS011;10600;53.096;8.802;2024-02-21T03:03:17;54.42;;;24.60;;
20880;SDS011;10600;53.096;8.802;2024-02-21T03:04:18;49.65;;;19.85;;
20880;SDS011;10600;53.096;8.802;2024-02-21T03:05:19;51.15;;;18.80;;
20880;SDS011;10600;53.096;8.802;2024-02-21T03:06:20;47.13;;;21.65;;
20880;SDS011;10600;53.096;8.802;2024-02-21T03:07:21;47.47;;;22.98;;
20880;SDS011;10600;53.096;8.802;2024-02-21T03:08:21;48.92;;;24.15;;
20880;SDS011;10600;53.096;8.802;2024-02-21T03:09:22;47.95;;;23.95;;
20880;SDS011;10600;53.096;8.802;2024-02-21T03:10:23;52.08;;;24.30;;
20880;SDS011;10600;53.096;8.802;2024-02-21T03:11:27;37.65;;;16.58;;
20880;SDS011;10600;53.096;8.802;2024-02-21T03:12:28;51.05;;;23.83;;
20880;SDS011;10600;53.096;8.802;2024-02-21T03:13:29;53.13;;;23.38;;
20880;SDS011;10600;53.096;8.802;2024-02-21T03:14:30;38.20;;;21.02;;
20880;SDS011;10600;53.096;8.802;2024-02-21T03:15:30;45.75;;;18.23;;
20880;SDS011;10600;53.096;8.802;2024-02-21T03:16:31;44.75;;;21.80;;
20880;SDS011;10600;53.096;8.802;2024-02-21T03:17:32;47.85;;;23.05;;
20880;SDS011;10600;53.096;8.802;2024-02-21T03:18:34;41.33;;;18.95;;
20880;SDS011;10600;53.096;8.802;2024-02-21T03:19:34;53.22;;;22.60;;
20880;SDS011;10600;53.096;8.802;2024-02-21T03:20:35;44.72;;;21.30;;
20880;SDS011;10600;53.096;8.802;2024-02-21T03:21:38;46.22;;;22.50;;
20880;SDS011;10600;53.096;8.802;2024-02-21T03:22:39;42.47;;;21.10;;
20880;SDS011;10600;53.096;8.802;2024-02-21T03:23:40;49.88;;;23.15;;
20880;SDS011;10600;53.096;8.802;2024-02-21T03:24:42;44.42;;;21.55;;
20880;SDS011;10600;53.096;8.802;2024-02-21T03:25:45;40.85;;;18.15;;
20880;SDS011;10600;53.096;8.802;2024-02-21T03:26:46;44.47;;;21.67;;
20880;SDS011;10600;53.096;8.802;2024-02-21T03:27:50;48.65;;;23.58;;
20880;SDS011;10600;53.096;8.802;2024-02-21T03:28:51;48.15;;;24.63;;
20880;SDS011;10600;53.096;8.802;2024-02-21T03:29:52;44.83;;;21.67;;
20880;SDS011;10600;53.096;8.802;2024-02-21T03:30:52;43.83;;;21.27;;
20880;SDS011;10600;53.096;8.802;2024-02-21T03:31:53;48.00;;;22.70;;
20880;SDS011;10600;53.096;8.802;2024-02-21T03:32:55;47.88;;;23.85;;
20880;SDS011;10600;53.096;8.802;2024-02-21T03:33:55;54.47;;;24.67;;
20880;SDS011;10600;53.096;8.802;2024-02-21T03:34:56;51.63;;;23.65;;
20880;SDS011;10600;53.096;8.802;2024-02-21T03:35:57;52.13;;;22.90;;
20880;SDS011;10600;53.096;8.802;2024-02-21T03:36:57;45.80;;;21.65;;
20880;SDS011;10600;53.096;8.802;2024-02-21T03:37:59;46.75;;;21.20;;
20880;SDS011;10600;53.096;8.802;2024-02-21T03:38:59;53.40;;;23.33;;
20880;SDS011;10600;53.096;8.802;2024-02-21T03:40:00;53.40;;;25.67;;
20880;SDS011;10600;53.096;8.802;2024-02-21T03:41:00;50.15;;;22.65;;
20880;SDS011;10600;53.096;8.802;2024-02-21T03:42:01;47.53;;;22.85;;
20880;SDS011;10600;53.096;8.802;2024-02-21T03:43:04;48.67;;;25.27;;
20880;SDS011;10600;53.096;8.802;2024-02-21T03:44:05;45.95;;;25.23;;
20880;SDS011;10600;53.096;8.802;2024-02-21T03:45:05;42.42;;;21.00;;
20880;SDS011;10600;53.096;8.802;2024-02-21T03:46:07;49.58;;;24.35;;
20880;SDS011;10600;53.096;8.802;2024-02-21T03:47:07;47.53;;;23.42;;
20880;SDS011;10600;53.096;8.802;2024-02-21T03:48:10;55.38;;;24.02;;
20880;SDS011;10600;53.096;8.802;2024-02-21T03:49:14;51.03;;;25.63;;
20880;SDS011;10600;53.096;8.802;2024-02-21T03:50:14;53.05;;;24.77;;
20880;SDS011;10600;53.096;8.802;2024-02-21T03:51:15;50.75;;;24.48;;
20880;SDS011;10600;53.096;8.802;2024-02-21T03:52:15;46.67;;;22.83;;
20880;SDS011;10600;53.096;8.802;2024-02-21T03:53:16;61.45;;;26.02;;
20880;SDS011;10600;53.096;8.802;2024-02-21T03:54:17;56.08;;;25.63;;
20880;SDS011;10600;53.096;8.802;2024-02-21T03:55:17;52.60;;;23.23;;
20880;SDS011;10600;53.096;8.802;2024-02-21T03:56:18;68.28;;;26.48;;
20880;SDS011;10600;53.096;8.802;2024-02-21T03:57:18;48.33;;;22.67;;
20880;SDS011;10600;53.096;8.802;2024-02-21T03:58:19;52.10;;;25.40;;
20880;SDS011;10600;53.096;8.802;2024-02-21T03:59:22;58.40;;;24.67;;
20880;SDS011;10600;53.096;8.802;2024-02-21T04:00:23;49.67;;;24.45;;
20880;SDS011;10600;53.096;8.802;2024-02-21T04:01:23;55.17;;;24.35;;
20880;SDS011;10600;53.096;8.802;2024-02-21T04:02:24;54.25;;;24.30;;
20880;SDS011;10600;53.096;8.802;2024-02-21T04:03:24;63.17;;;26.63;;
20880;SDS011;10600;53.096;8.802;2024-02-21T04:04:25;59.97;;;25.38;;
20880;SDS011;10600;53.096;8.802;2024-02-21T04:05:25;53.33;;;22.98;;
20880;SDS011;10600;53.096;8.802;2024-02-21T04:06:26;55.05;;;23.55;;
20880;SDS011;10600;53.096;8.802;2024-02-21T04:07:27;58.67;;;25.50;;
20880;SDS011;10600;53.096;8.802;2024-02-21T04:08:27;56.30;;;24.45;;
20880;SDS011;10600;53.096;8.802;2024-02-21T04:09:28;52.67;;;24.75;;
20880;SDS011;10600;53.096;8.802;2024-02-21T04:10:28;57.92;;;25.15;;
20880;SDS011;10600;53.096;8.802;2024-02-21T04:11:29;60.50;;;26.48;;
20880;SDS011;10600;53.096;8.802;2024-02-21T04:12:29;54.53;;;24.23;;
20880;SDS011;10600;53.096;8.802;2024-02-21T04:13:30;56.97;;;26.20;;
20880;SDS011;10600;53.096;8.802;2024-02-21T04:14:30;57.13;;;25.20;;
20880;SDS011;10600;53.096;8.802;2024-02-21T04:15:31;59.83;;;26.27;;
20880;SDS011;10600;53.096;8.802;2024-02-21T04:16:31;58.17;;;24.92;;
20880;SDS011;10600;53.096;8.802;2024-02-21T04:17:32;53.30;;;25.10;;
20880;SDS011;10600;53.096;8.802;2024-02-21T04:18:32;64.50;;;26.42;;
20880;SDS011;10600;53.096;8.802;2024-02-21T04:19:33;47.80;;;21.20;;
20880;SDS011;10600;53.096;8.802;2024-02-21T04:20:34;65.15;;;25.98;;
20880;SDS011;10600;53.096;8.802;2024-02-21T04:21:35;54.38;;;26.17;;
20880;SDS011;10600;53.096;8.802;2024-02-21T04:22:36;56.33;;;27.67;;
20880;SDS011;10600;53.096;8.802;2024-02-21T04:23:36;55.17;;;25.15;;
20880;SDS011;10600;53.096;8.802;2024-02-21T04:24:37;59.97;;;26.75;;
20880;SDS011;10600;53.096;8.802;2024-02-21T04:25:37;61.17;;;26.77;;
20880;SDS011;10600;53.096;8.802;2024-02-21T04:26:38;56.72;;;24.02;;
20880;SDS011;10600;53.096;8.802;2024-02-21T04:27:39;48.13;;;22.10;;
20880;SDS011;10600;53.096;8.802;2024-02-21T04:28:39;55.25;;;25.40;;
20880;SDS011;10600;53.096;8.802;2024-02-21T04:29:40;62.55;;;25.95;;
20880;SDS011;10600;53.096;8.802;2024-02-21T04:30:41;59.17;;;25.75;;
20880;SDS011;10600;53.096;8.802;2024-02-21T04:31:41;61.53;;;26.75;;
20880;SDS011;10600;53.096;8.802;2024-02-21T04:32:42;57.83;;;24.23;;
20880;SDS011;10600;53.096;8.802;2024-02-21T04:33:42;49.95;;;21.40;;
20880;SDS011;10600;53.096;8.802;2024-02-21T04:34:43;50.88;;;24.00;;
20880;SDS011;10600;53.096;8.802;2024-02-21T04:35:43;61.55;;;25.73;;
20880;SDS011;10600;53.096;8.802;2024-02-21T04:36:44;60.88;;;26.05;;
20880;SDS011;10600;53.096;8.802;2024-02-21T04:37:45;58.50;;;26.95;;
20880;SDS011;10600;53.096;8.802;2024-02-21T04:38:45;58.22;;;25.85;;
20880;SDS011;10600;53.096;8.802;2024-02-21T04:39:46;62.45;;;27.40;;
20880;SDS011;10600;53.096;8.802;2024-02-21T04:40:48;57.70;;;24.77;;
20880;SDS011;10600;53.096;8.802;2024-02-21T04:41:48;64.07;;;26.77;;
20880;SDS011;10600;53.096;8.802;2024-02-21T04:42:49;66.05;;;26.67;;
20880;SDS011;10600;53.096;8.802;2024-02-21T04:43:49;61.17;;;25.05;;
20880;SDS011;10600;53.096;8.802;2024-02-21T04:44:50;54.50;;;23.50;;
20880;SDS011;10600;53.096;8.802;2024-02-21T04:45:50;56.42;;;25.17;;
20880;SDS011;10600;53.096;8.802;2024-02-21T04:46:53;52.17;;;22.80;;
20880;SDS011;10600;53.096;8.802;2024-02-21T04:47:53;57.17;;;25.33;;
20880;SDS011;10600;53.096;8.802;2024-02-21T04:48:54;59.35;;;26.17;;
20880;SDS011;10600;53.096;8.802;2024-02-21T04:49:55;59.88;;;26.38;;
20880;SDS011;10600;53.096;8.802;2024-02-21T04:50:56;55.22;;;24.13;;
20880;SDS011;10600;53.096;8.802;2024-02-21T04:51:56;58.20;;;25.45;;
20880;SDS011;10600;53.096;8.802;2024-02-21T04:52:57;64.25;;;27.35;;
20880;SDS011;10600;53.096;8.802;2024-02-21T04:54:01;60.10;;;26.05;;
20880;SDS011;10600;53.096;8.802;2024-02-21T04:55:01;48.75;;;21.52;;
20880;SDS011;10600;53.096;8.802;2024-02-21T04:56:02;58.55;;;23.65;;
20880;SDS011;10600;53.096;8.802;2024-02-21T04:57:03;57.70;;;24.80;;
20880;SDS011;10600;53.096;8.802;2024-02-21T04:58:03;57.35;;;25.80;;
20880;SDS011;10600;53.096;8.802;2024-02-21T04:59:04;56.13;;;24.98;;
20880;SDS011;10600;53.096;8.802;2024-02-21T05:00:05;59.33;;;24.33;;
20880;SDS011;10600;53.096;8.802;2024-02-21T05:01:06;60.65;;;25.17;;
20880;SDS011;10600;53.096;8.802;2024-02-21T05:02:07;61.90;;;26.63;;
20880;SDS011;10600;53.096;8.802;2024-02-21T05:03:08;56.83;;;23.55;;
20880;SDS011;10600;53.096;8.802;2024-02-21T05:04:08;57.22;;;25.48;;
20880;SDS011;10600;53.096;8.802;2024-02-21T05:05:09;63.45;;;27.05;;
20880;SDS011;10600;53.096;8.802;2024-02-21T05:06:09;60.28;;;26.70;;
20880;SDS011;10600;53.096;8.802;2024-02-21T05:07:10;53.75;;;24.35;;
20880;SDS011;10600;53.096;8.802;2024-02-21T05:08:11;53.10;;;22.90;;
20880;SDS011;10600;53.096;8.802;2024-02-21T05:09:12;54.13;;;23.83;;
20880;SDS011;10600;53.096;8.802;2024-02-21T05:10:13;65.63;;;26.38;;
20880;SDS011;10600;53.096;8.802;2024-02-21T05:11:14;55.75;;;24.73;;
20880;SDS011;10600;53.096;8.802;2024-02-21T05:12:15;54.30;;;24.65;;
20880;SDS011;10600;53.096;8.802;2024-02-21T05:13:15;55.80;;;23.92;;
20880;SDS011;10600;53.096;8.802;2024-02-21T05:14:16;53.63;;;22.63;;
20880;SDS011;10600;53.096;8.802;2024-02-21T05:15:16;57.67;;;24.13;;
20880;SDS011;10600;53.096;8.802;2024-02-21T05:16:17;58.28;;;24.27;;
20880;SDS011;10600;53.096;8.802;2024-02-21T05:17:19;61.05;;;26.23;;
20880;SDS011;10600;53.096;8.802;2024-02-21T05:18:20;56.75;;;25.35;;
20880;SDS011;10600;53.096;8.802;2024-02-21T05:19:20;62.95;;;25.60;;
20880;SDS011;10600;53.096;8.802;2024-02-21T05:20:21;58.80;;;24.38;;
20880;SDS011;10600;53.096;8.802;2024-02-21T05:21:22;59.22;;;25.67;;
20880;SDS011;10600;53.096;8.802;2024-02-21T05:22:23;55.30;;;23.83;;
20880;SDS011;10600;53.096;8.802;2024-02-21T05:23:24;61.45;;;25.35;;
20880;SDS011;10600;53.096;8.802;2024-02-21T05:24:25;54.30;;;23.30;;
20880;SDS011;10600;53.096;8.802;2024-02-21T05:25:29;56.38;;;24.95;;
20880;SDS011;10600;53.096;8.802;2024-02-21T05:26:30;60.90;;;25.23;;
20880;SDS011;10600;53.096;8.802;2024-02-21T05:27:30;57.00;;;24.48;;
20880;SDS011;10600;53.096;8.802;2024-02-21T05:28:31;55.17;;;23.73;;
20880;SDS011;10600;53.096;8.802;2024-02-21T05:29:32;44.60;;;20.35;;
20880;SDS011;10600;53.096;8.802;2024-02-21T05:30:33;52.03;;;22.80;;
20880;SDS011;10600;53.096;8.802;2024-02-21T05:32:52;51.47;;;23.00;;
20880;SDS011;10600;53.096;8.802;2024-02-21T05:33:53;52.88;;;23.63;;
20880;SDS011;10600;53.096;8.802;2024-02-21T05:34:53;49.50;;;22.88;;
20880;SDS011;10600;53.096;8.802;2024-02-21T05:35:54;46.75;;;22.02;;
20880;SDS011;10600;53.096;8.802;2024-02-21T05:36:55;50.40;;;24.13;;
20880;SDS011;10600;53.096;8.802;2024-02-21T05:37:57;56.08;;;24.02;;
20880;SDS011;10600;53.096;8.802;2024-02-21T05:38:59;53.03;;;23.23;;
20880;SDS011;10600;53.096;8.802;2024-02-21T05:39:59;53.05;;;22.95;;
20880;SDS011;10600;53.096;8.802;2024-02-21T05:41:00;52.63;;;21.98;;
20880;SDS011;10600;53.096;8.802;2024-02-21T05:42:01;50.88;;;22.23;;
20880;SDS011;10600;53.096;8.802;2024-02-21T05:43:02;47.75;;;20.35;;
20880;SDS011;10600;53.096;8.802;2024-02-21T05:44:03;51.33;;;23.33;;
20880;SDS011;10600;53.096;8.802;2024-02-21T05:45:04;47.00;;;21.52;;
20880;SDS011;10600;53.096;8.802;2024-02-21T05:46:05;51.20;;;22.60;;
20880;SDS011;10600;53.096;8.802;2024-02-21T05:47:05;45.35;;;21.25;;
20880;SDS011;10600;53.096;8.802;2024-02-21T05:48:10;49.83;;;21.90;;
20880;SDS011;10600;53.096;8.802;2024-02-21T05:49:10;54.53;;;23.08;;
20880;SDS011;10600;53.096;8.802;2024-02-21T05:50:11;52.60;;;23.38;;
20880;SDS011;10600;53.096;8.802;2024-02-21T05:51:11;49.78;;;22.00;;
20880;SDS011;10600;53.096;8.802;2024-02-21T05:52:12;49.88;;;21.58;;
20880;SDS011;10600;53.096;8.802;2024-02-21T05:53:12;50.42;;;22.13;;
20880;SDS011;10600;53.096;8.802;2024-02-21T05:54:13;48.72;;;20.02;;
20880;SDS011;10600;53.096;8.802;2024-02-21T05:55:14;52.45;;;22.88;;
20880;SDS011;10600;53.096;8.802;2024-02-21T05:56:15;51.65;;;22.25;;
20880;SDS011;10600;53.096;8.802;2024-02-21T05:57:16;51.00;;;22.63;;
20880;SDS011;10600;53.096;8.802;2024-02-21T05:58:17;46.58;;;21.38;;